Terminal Aerodrome Forecast
Issued by NWS

Home | Current Version | Previous Version | Text Only | Print | Product List | Glossary On
Versions: 1 2 3 4 5 6 7 8 9 10 11 12 13 14 15 16 17 18 19 20 21 22 23 24 25
000
FTUS44 KFWD 011516 AAA
TAFDAL
TAF AMD
KDAL 011516Z 0115/0212 20015KT P6SM SCT050 BKN300=

USA.gov is the U.S. government's official web portal to all federal, state and local government web resources and services.